Time;durP1;ratioP1;P1;durP2;ratioP2;P2;SDS_P1;SDS_P2;PMS_P1;PMS_P2;Temp;Humidity;BMP_temperature;BMP_pressure;BME280_temperature;BME280_humidity;BME280_pressure;Samples;Min_cycle;Max_cycle;Signal;HPM_P1;HPM_P2
2022/06/29 00:00:12;;;;;;;;;16.60;15.00;;;;;;;;4980209;28;8764;-69
2022/06/29 00:02:38;;;;;;;;;13.80;11.00;;;;;;;;4979904;28;8795;-69
2022/06/29 00:05:05;;;;;;;;;15.60;11.00;;;;;;;;4963247;28;8755;-68
2022/06/29 00:07:32;;;;;;;;;12.00;12.00;;;;;;;;4962742;28;8763;-69
2022/06/29 00:09:58;;;;;;;;;13.40;10.80;;;;;;;;4981056;28;8776;-68
2022/06/29 00:12:25;;;;;;;;;12.80;10.80;;;;;;;;4962777;28;8806;-68
2022/06/29 00:14:52;;;;;;;;;8.40;3.60;;;;;;;;4980429;28;9314;-68
2022/06/29 00:17:18;;;;;;;;;15.60;10.40;;;;;;;;4979484;28;8783;-68
2022/06/29 00:19:45;;;;;;;;;9.60;7.60;;;;;;;;4963284;28;8819;-68
2022/06/29 00:22:12;;;;;;;;;11.00;10.60;;;;;;;;4980814;28;8830;-68
2022/06/29 00:24:38;;;;;;;;;12.20;10.80;;;;;;;;4962517;28;8835;-68
2022/06/29 00:27:05;;;;;;;;;9.20;9.00;;;;;;;;4980249;28;8791;-68
2022/06/29 00:29:32;;;;;;;;;8.40;7.40;;;;;;;;4980119;28;8889;-68
2022/06/29 00:31:58;;;;;;;;;9.80;9.80;;;;;;;;4980289;28;8865;-68
2022/06/29 00:34:25;;;;;;;;;10.20;9.00;;;;;;;;4962379;28;12572;-67
2022/06/29 00:36:52;;;;;;;;;11.40;10.80;;;;;;;;4980515;28;8752;-68
2022/06/29 00:39:18;;;;;;;;;11.20;9.00;;;;;;;;4979621;28;8783;-67
2022/06/29 00:41:45;;;;;;;;;13.20;10.80;;;;;;;;4962295;28;9466;-68
2022/06/29 00:44:16;;;;;;;;;13.00;12.40;;;;;;;;4979623;28;8819;-68
2022/06/29 00:46:49;;;;;;;;;9.40;9.20;;;;;;;;4978278;28;8772;-69
2022/06/29 00:49:16;;;;;;;;;13.20;11.20;;;;;;;;4980119;28;8819;-68
2022/06/29 00:51:45;;;;;;;;;11.20;9.20;;;;;;;;4979527;28;8843;-68
2022/06/29 00:54:14;;;;;;;;;15.40;15.40;;;;;;;;4979508;28;8759;-68
2022/06/29 00:56:40;;;;;;;;;14.00;12.60;;;;;;;;4978651;28;8744;-68
2022/06/29 00:59:07;;;;;;;;;15.80;12.60;;;;;;;;4979416;28;8771;-68
2022/06/29 01:01:34;;;;;;;;;11.60;11.60;;;;;;;;4962266;28;8902;-68
2022/06/29 01:04:03;;;;;;;;;16.40;15.00;;;;;;;;4979781;28;8782;-68
2022/06/29 01:06:30;;;;;;;;;16.60;14.40;;;;;;;;4978981;28;8776;-68
2022/06/29 01:08:56;;;;;;;;;18.40;15.40;;;;;;;;4979329;28;8819;-68
2022/06/29 01:11:23;;;;;;;;;14.00;13.40;;;;;;;;4961536;28;8783;-67
2022/06/29 01:13:50;;;;;;;;;14.40;14.00;;;;;;;;4979101;28;8886;-68
2022/06/29 01:16:16;;;;;;;;;23.25;17.75;;;;;;;;4980078;28;8803;-68
2022/06/29 01:18:43;;;;;;;;;10.50;8.00;;;;;;;;4979093;28;8862;-68
2022/06/29 01:21:13;;;;;;;;;19.00;15.00;;;;;;;;4961966;28;8791;-68
2022/06/29 01:23:40;;;;;;;;;18.00;15.00;;;;;;;;4979084;28;8811;-68
2022/06/29 01:26:11;;;;;;;;;15.00;12.20;;;;;;;;4979168;28;8783;-68
2022/06/29 01:28:44;;;;;;;;;10.60;9.60;;;;;;;;4979001;28;9000;-68
2022/06/29 01:31:14;;;;;;;;;10.80;9.00;;;;;;;;4979643;28;8792;-68
2022/06/29 01:33:41;;;;;;;;;14.60;8.60;;;;;;;;4978615;28;8764;-68
2022/06/29 01:36:08;;;;;;;;;9.40;8.00;;;;;;;;4961478;28;8797;-69
2022/06/29 01:38:36;;;;;;;;;9.60;8.80;;;;;;;;4978599;28;8783;-68
2022/06/29 01:41:04;;;;;;;;;9.80;9.20;;;;;;;;4978654;28;9907;-69
2022/06/29 01:43:31;;;;;;;;;6.00;6.00;;;;;;;;4977083;28;8774;-69
2022/06/29 01:45:58;;;;;;;;;7.00;6.00;;;;;;;;4979454;28;8902;-69
2022/06/29 01:48:25;;;;;;;;;6.00;5.80;;;;;;;;4978127;28;8779;-68
2022/06/29 01:50:51;;;;;;;;;7.20;5.80;;;;;;;;4978355;28;8780;-69
2022/06/29 01:53:18;;;;;;;;;4.00;4.00;;;;;;;;4961370;28;8866;-67
2022/06/29 01:55:45;;;;;;;;;7.00;6.00;;;;;;;;4978691;28;8830;-69
2022/06/29 01:58:12;;;;;;;;;5.00;4.60;;;;;;;;4979272;28;8782;-69
2022/06/29 02:00:38;;;;;;;;;8.40;6.40;;;;;;;;4978427;28;8807;-69
2022/06/29 02:03:05;;;;;;;;;8.60;8.00;;;;;;;;4978407;28;8814;-69
2022/06/29 02:05:32;;;;;;;;;6.60;5.00;;;;;;;;4978288;28;8787;-69
2022/06/29 02:07:58;;;;;;;;;6.20;6.20;;;;;;;;4961039;28;8818;-69
2022/06/29 02:10:25;;;;;;;;;7.00;7.00;;;;;;;;4978377;28;11092;-68
2022/06/29 02:12:52;;;;;;;;;8.60;8.00;;;;;;;;4978997;28;8795;-69
2022/06/29 02:15:18;;;;;;;;;7.00;6.60;;;;;;;;4978167;28;8801;-68
2022/06/29 02:17:45;;;;;;;;;8.40;6.60;;;;;;;;4978076;28;8810;-69
2022/06/29 02:20:12;;;;;;;;;7.80;6.60;;;;;;;;4977966;28;8784;-69
2022/06/29 02:22:40;;;;;;;;;8.20;7.00;;;;;;;;4978138;28;8767;-69
2022/06/29 02:25:07;;;;;;;;;9.80;9.00;;;;;;;;4978873;28;8874;-69
2022/06/29 02:27:34;;;;;;;;;8.00;8.00;;;;;;;;4977865;28;8792;-68
2022/06/29 02:30:00;;;;;;;;;9.20;9.20;;;;;;;;4978091;28;8798;-69
2022/06/29 02:35:12;;;;;;;;;10.40;9.20;;;;;;;;4977995;28;8791;-69
2022/06/29 02:37:39;;;;;;;;;12.60;9.00;;;;;;;;4977766;28;8779;-69
2022/06/29 02:40:06;;;;;;;;;11.40;8.00;;;;;;;;4978755;28;8759;-69
2022/06/29 02:42:32;;;;;;;;;12.40;8.00;;;;;;;;4977817;28;8887;-69
2022/06/29 02:44:59;;;;;;;;;9.80;7.40;;;;;;;;4977185;28;8803;-69
2022/06/29 02:47:27;;;;;;;;;6.60;6.40;;;;;;;;4977655;28;8794;-69
2022/06/29 02:49:54;;;;;;;;;8.00;7.60;;;;;;;;4978008;28;8882;-69
2022/06/29 02:52:21;;;;;;;;;10.20;8.40;;;;;;;;4977891;28;8787;-67
2022/06/29 02:54:47;;;;;;;;;6.40;4.80;;;;;;;;4960923;28;8783;-69
2022/06/29 02:57:14;;;;;;;;;4.40;4.40;;;;;;;;4977783;28;8795;-69
2022/06/29 02:59:40;;;;;;;;;4.80;4.80;;;;;;;;4977745;28;8768;-68
2022/06/29 03:02:07;;;;;;;;;6.00;5.00;;;;;;;;4977756;28;9416;-68
2022/06/29 03:04:34;;;;;;;;;5.00;4.60;;;;;;;;4977779;28;8888;-68
2022/06/29 03:07:01;;;;;;;;;6.40;5.20;;;;;;;;4978295;28;8791;-68
2022/06/29 03:09:28;;;;;;;;;4.20;4.20;;;;;;;;4976376;28;8771;-68
2022/06/29 03:11:54;;;;;;;;;4.40;4.00;;;;;;;;4977654;28;8799;-68
2022/06/29 03:14:21;;;;;;;;;4.40;4.00;;;;;;;;4977521;28;8790;-68
2022/06/29 03:16:47;;;;;;;;;5.60;5.40;;;;;;;;4977705;28;9246;-69
2022/06/29 03:19:14;;;;;;;;;3.60;3.60;;;;;;;;4979863;28;8771;-69
2022/06/29 03:21:41;;;;;;;;;6.60;5.40;;;;;;;;4980958;28;8788;-68
2022/06/29 03:24:07;;;;;;;;;5.80;4.00;;;;;;;;4963936;28;8755;-69
2022/06/29 03:26:34;;;;;;;;;6.00;5.00;;;;;;;;4980908;28;8772;-68
2022/06/29 03:29:00;;;;;;;;;5.00;4.60;;;;;;;;4980975;28;8779;-68
2022/06/29 03:31:27;;;;;;;;;7.40;5.00;;;;;;;;4980699;28;8796;-68
2022/06/29 03:33:54;;;;;;;;;4.40;4.40;;;;;;;;4981711;28;8759;-69
2022/06/29 03:36:20;;;;;;;;;5.80;5.80;;;;;;;;4980228;28;8817;-68
2022/06/29 03:38:48;;;;;;;;;5.20;5.00;;;;;;;;4981425;28;8775;-69
2022/06/29 03:41:15;;;;;;;;;9.00;7.00;;;;;;;;4970912;28;8944;-69
2022/06/29 03:43:41;;;;;;;;;5.40;4.80;;;;;;;;4979903;28;8798;-69
2022/06/29 03:46:08;;;;;;;;;4.40;4.40;;;;;;;;4981677;28;8755;-68
2022/06/29 03:48:35;;;;;;;;;6.60;4.60;;;;;;;;4980434;28;8779;-68
2022/06/29 03:51:01;;;;;;;;;5.00;5.00;;;;;;;;4981228;28;8783;-68
2022/06/29 03:53:28;;;;;;;;;5.40;5.00;;;;;;;;4980131;28;9477;-68
2022/06/29 03:55:56;;;;;;;;;6.20;5.00;;;;;;;;4980674;28;8775;-68
2022/06/29 03:58:23;;;;;;;;;7.40;4.20;;;;;;;;4980811;28;8849;-68
2022/06/29 04:00:49;;;;;;;;;7.60;6.00;;;;;;;;4980538;28;8775;-68
2022/06/29 04:03:16;;;;;;;;;7.20;4.80;;;;;;;;4980432;28;8787;-69
2022/06/29 04:05:43;;;;;;;;;7.60;7.60;;;;;;;;4969431;28;8809;-68
2022/06/29 04:08:10;;;;;;;;;6.00;5.00;;;;;;;;4980152;28;8751;-69
2022/06/29 04:10:37;;;;;;;;;6.00;5.00;;;;;;;;4980071;28;8784;-68
2022/06/29 04:13:03;;;;;;;;;7.20;6.00;;;;;;;;4981073;28;8792;-69
2022/06/29 04:15:30;;;;;;;;;5.40;5.40;;;;;;;;4962869;28;8771;-69
2022/06/29 04:17:57;;;;;;;;;8.40;5.00;;;;;;;;4979012;28;9464;-69
2022/06/29 04:23:08;;;;;;;;;6.20;5.60;;;;;;;;4979960;28;8775;-68
2022/06/29 04:25:35;;;;;;;;;5.00;5.00;;;;;;;;4979670;28;8792;-69
2022/06/29 04:28:06;;;;;;;;;6.80;5.40;;;;;;;;4980677;28;8779;-68
2022/06/29 04:30:33;;;;;;;;;5.60;4.00;;;;;;;;4978783;28;8784;-68
2022/06/29 04:32:59;;;;;;;;;4.20;4.20;;;;;;;;4971337;28;8791;-69
2022/06/29 04:35:26;;;;;;;;;8.20;5.40;;;;;;;;4979785;28;8866;-68
2022/06/29 04:37:53;;;;;;;;;4.40;4.20;;;;;;;;4980020;28;8836;-69
2022/06/29 04:40:19;;;;;;;;;6.60;5.00;;;;;;;;4979147;28;8787;-68
2022/06/29 04:42:46;;;;;;;;;7.00;5.00;;;;;;;;4978701;28;8836;-68
2022/06/29 04:48:01;;;;;;;;;8.40;7.20;;;;;;;;4978257;28;10069;-69
2022/06/29 04:50:28;;;;;;;;;8.20;7.60;;;;;;;;4962029;28;8779;-68
2022/06/29 04:52:54;;;;;;;;;7.80;7.80;;;;;;;;4962327;28;8776;-69
2022/06/29 04:55:23;;;;;;;;;8.40;6.60;;;;;;;;4980049;28;8744;-68
2022/06/29 04:57:50;;;;;;;;;9.20;6.80;;;;;;;;4979621;28;9459;-69
2022/06/29 05:00:17;;;;;;;;;7.80;6.00;;;;;;;;4979560;28;8811;-67
2022/06/29 05:02:44;;;;;;;;;9.20;7.40;;;;;;;;4979359;28;8755;-69
2022/06/29 05:05:10;;;;;;;;;7.60;6.60;;;;;;;;4962270;28;8763;-69
2022/06/29 05:07:37;;;;;;;;;10.60;9.20;;;;;;;;4979133;28;8817;-69
2022/06/29 05:10:04;;;;;;;;;6.80;6.80;;;;;;;;4979428;28;8778;-69
2022/06/29 05:12:30;;;;;;;;;7.80;6.60;;;;;;;;4978752;28;8827;-69
2022/06/29 05:14:57;;;;;;;;;7.40;7.40;;;;;;;;4977905;28;8901;-69
2022/06/29 05:17:24;;;;;;;;;27.20;25.20;;;;;;;;4978669;28;8779;-68
2022/06/29 05:19:50;;;;;;;;;32.25;28.25;;;;;;;;4979126;28;8771;-69
2022/06/29 05:22:17;;;;;;;;;7.00;5.60;;;;;;;;4962440;28;8850;-64
2022/06/29 05:24:46;;;;;;;;;6.20;5.80;;;;;;;;4961746;28;8794;-69
2022/06/29 05:27:13;;;;;;;;;11.00;8.00;;;;;;;;4951720;28;8795;-69
2022/06/29 05:29:39;;;;;;;;;9.00;7.00;;;;;;;;4978552;28;8775;-69
2022/06/29 05:32:10;;;;;;;;;5.00;5.00;;;;;;;;4978065;28;8849;-69
2022/06/29 05:34:36;;;;;;;;;6.00;5.40;;;;;;;;4978542;28;8775;-69
2022/06/29 05:37:03;;;;;;;;;4.40;4.40;;;;;;;;4979647;28;8801;-69
2022/06/29 05:39:30;;;;;;;;;4.00;3.00;;;;;;;;4978500;28;8771;-69
2022/06/29 05:41:56;;;;;;;;;4.00;4.00;;;;;;;;4960896;28;8897;-69
2022/06/29 05:44:23;;;;;;;;;4.40;4.20;;;;;;;;4978166;28;8810;-69
2022/06/29 05:46:50;;;;;;;;;4.40;3.00;;;;;;;;4978499;28;8763;-69
2022/06/29 05:49:16;;;;;;;;;2.80;2.00;;;;;;;;4979087;28;8857;-69
2022/06/29 05:51:43;;;;;;;;;3.00;2.80;;;;;;;;4978298;28;8803;-69
2022/06/29 05:54:10;;;;;;;;;3.00;2.80;;;;;;;;4978502;28;8842;-69
2022/06/29 05:56:36;;;;;;;;;3.00;3.00;;;;;;;;4961293;28;8787;-68
2022/06/29 05:59:03;;;;;;;;;4.00;2.60;;;;;;;;4961027;28;8759;-69
2022/06/29 06:01:29;;;;;;;;;3.00;3.00;;;;;;;;4977768;28;9529;-68
2022/06/29 06:03:56;;;;;;;;;1.60;1.60;;;;;;;;4979207;28;8866;-69
2022/06/29 06:06:23;;;;;;;;;3.00;3.00;;;;;;;;4978095;28;8803;-68
2022/06/29 06:08:50;;;;;;;;;5.00;2.00;;;;;;;;4978390;28;8787;-69
2022/06/29 06:11:16;;;;;;;;;2.20;1.20;;;;;;;;4961066;28;8791;-69
2022/06/29 06:13:43;;;;;;;;;2.00;2.00;;;;;;;;4978322;28;9453;-69
2022/06/29 06:16:10;;;;;;;;;3.00;2.00;;;;;;;;4979079;28;8755;-69
2022/06/29 06:18:36;;;;;;;;;2.80;1.80;;;;;;;;4978299;28;8810;-69
2022/06/29 06:21:03;;;;;;;;;2.00;2.00;;;;;;;;4978339;28;8887;-69
2022/06/29 06:23:32;;;;;;;;;1.00;1.00;;;;;;;;4977788;28;8783;-68
2022/06/29 06:25:59;;;;;;;;;10.00;6.00;;;;;;;;4978090;28;8813;-69
2022/06/29 06:28:25;;;;;;;;;4.00;2.40;;;;;;;;4978386;28;8821;-67
2022/06/29 06:30:52;;;;;;;;;2.60;2.00;;;;;;;;4961764;28;8744;-69
2022/06/29 06:33:18;;;;;;;;;2.80;2.00;;;;;;;;4977889;28;8775;-67
2022/06/29 06:35:45;;;;;;;;;6.60;3.00;;;;;;;;4961163;28;8755;-68
2022/06/29 06:38:13;;;;;;;;;5.00;3.00;;;;;;;;4960535;28;8783;-69
2022/06/29 06:43:25;;;;;;;;;3.60;2.60;;;;;;;;4977696;28;9412;-68
2022/06/29 06:45:51;;;;;;;;;3.60;2.80;;;;;;;;4978468;28;8803;-69
2022/06/29 06:48:18;;;;;;;;;1.00;1.00;;;;;;;;4957138;29;8801;-64
2022/06/29 06:50:45;;;;;;;;;3.60;3.00;;;;;;;;4958799;28;9964;-69
2022/06/29 06:53:11;;;;;;;;;2.00;2.00;;;;;;;;4958483;28;8785;-69
2022/06/29 06:55:38;;;;;;;;;3.40;1.80;;;;;;;;4961138;28;8908;-69
2022/06/29 06:58:05;;;;;;;;;2.60;2.60;;;;;;;;4962952;28;8754;-69
2022/06/29 07:00:31;;;;;;;;;1.60;1.00;;;;;;;;4962158;28;8824;-69
2022/06/29 07:02:58;;;;;;;;;3.60;2.00;;;;;;;;4977028;28;9444;-69
2022/06/29 07:05:25;;;;;;;;;1.00;1.00;;;;;;;;4981248;28;8768;-68
2022/06/29 07:07:52;;;;;;;;;2.20;2.00;;;;;;;;4981635;28;8751;-69
2022/06/29 07:10:18;;;;;;;;;2.00;2.00;;;;;;;;4981814;28;8751;-68
2022/06/29 07:12:45;;;;;;;;;6.60;2.00;;;;;;;;4981369;28;8881;-69
2022/06/29 07:15:12;;;;;;;;;2.00;2.00;;;;;;;;4981824;28;8933;-69
2022/06/29 07:17:38;;;;;;;;;1.40;0.80;;;;;;;;4981154;28;8803;-69
2022/06/29 07:20:06;;;;;;;;;2.00;2.00;;;;;;;;4981530;28;8780;-70
2022/06/29 07:22:33;;;;;;;;;0.60;0.60;;;;;;;;4981067;28;8752;-69
2022/06/29 07:25:00;;;;;;;;;1.40;0.20;;;;;;;;4981870;28;8779;-69
2022/06/29 07:27:26;;;;;;;;;0.60;0.60;;;;;;;;4980976;28;8840;-69
2022/06/29 07:29:53;;;;;;;;;1.00;1.00;;;;;;;;4979484;28;8779;-69
2022/06/29 07:32:20;;;;;;;;;1.80;1.00;;;;;;;;4980355;28;8763;-68
2022/06/29 07:34:47;;;;;;;;;1.80;1.80;;;;;;;;4981034;28;8760;-69
2022/06/29 07:37:13;;;;;;;;;2.00;2.00;;;;;;;;4981433;28;9405;-69
2022/06/29 07:39:40;;;;;;;;;1.00;1.00;;;;;;;;4980698;28;8797;-69
2022/06/29 07:42:07;;;;;;;;;2.40;2.00;;;;;;;;4963567;28;8877;-69
2022/06/29 07:44:33;;;;;;;;;3.20;2.60;;;;;;;;4980864;28;9452;-69
2022/06/29 07:47:00;;;;;;;;;1.60;1.60;;;;;;;;4960445;28;8769;-69
2022/06/29 07:49:27;;;;;;;;;3.00;2.40;;;;;;;;4961144;28;8817;-69
2022/06/29 07:51:53;;;;;;;;;4.20;3.20;;;;;;;;4976836;28;8797;-69
2022/06/29 07:54:20;;;;;;;;;3.20;3.20;;;;;;;;4961057;28;8785;-68
2022/06/29 07:56:46;;;;;;;;;2.00;2.00;;;;;;;;4961528;28;8793;-69
2022/06/29 07:59:13;;;;;;;;;4.00;2.00;;;;;;;;4961547;28;8765;-69
2022/06/29 08:01:40;;;;;;;;;3.80;3.20;;;;;;;;4965318;28;8755;-69
2022/06/29 08:04:06;;;;;;;;;3.00;3.00;;;;;;;;4963709;28;8838;-69
2022/06/29 08:06:33;;;;;;;;;3.20;3.20;;;;;;;;4962796;28;8756;-69
2022/06/29 08:09:02;;;;;;;;;5.40;3.60;;;;;;;;4980419;28;8802;-69
2022/06/29 08:11:29;;;;;;;;;3.00;3.00;;;;;;;;4980028;28;8799;-69
2022/06/29 08:13:58;;;;;;;;;3.40;3.40;;;;;;;;4980298;28;8833;-69
2022/06/29 08:16:25;;;;;;;;;5.20;5.00;;;;;;;;4980277;28;8791;-67
2022/06/29 08:18:52;;;;;;;;;3.80;3.80;;;;;;;;4980858;28;8894;-69
2022/06/29 08:21:18;;;;;;;;;5.20;4.00;;;;;;;;4979860;28;8791;-68
2022/06/29 08:23:45;;;;;;;;;5.00;4.00;;;;;;;;4980159;28;8810;-69
2022/06/29 08:26:12;;;;;;;;;2.60;2.60;;;;;;;;4962951;28;8788;-69
2022/06/29 08:28:38;;;;;;;;;3.40;3.00;;;;;;;;4962682;28;8791;-69
2022/06/29 08:31:05;;;;;;;;;5.80;4.40;;;;;;;;4980758;28;8764;-69
2022/06/29 08:33:31;;;;;;;;;6.80;5.20;;;;;;;;4979599;28;8768;-69
2022/06/29 08:35:58;;;;;;;;;4.00;3.80;;;;;;;;4980072;28;8814;-69
2022/06/29 08:38:25;;;;;;;;;6.00;4.60;;;;;;;;4979851;28;8764;-68
2022/06/29 08:40:51;;;;;;;;;4.40;4.40;;;;;;;;4978973;28;9895;-69
2022/06/29 08:43:18;;;;;;;;;3.20;3.20;;;;;;;;4979222;28;8854;-68
2022/06/29 08:45:48;;;;;;;;;5.20;3.40;;;;;;;;4979609;28;8783;-68
2022/06/29 08:48:15;;;;;;;;;0.80;0.80;;;;;;;;4979797;28;8775;-69
2022/06/29 08:50:43;;;;;;;;;3.40;2.00;;;;;;;;4979541;28;8779;-69
2022/06/29 08:53:11;;;;;;;;;1.00;1.00;;;;;;;;4979522;28;9408;-69
2022/06/29 08:55:38;;;;;;;;;3.00;2.00;;;;;;;;4962019;28;8811;-69
2022/06/29 08:58:06;;;;;;;;;0.00;0.00;;;;;;;;4980234;28;8949;-69
2022/06/29 09:00:36;;;;;;;;;0.20;0.20;;;;;;;;4979458;28;8767;-69
2022/06/29 09:03:04;;;;;;;;;2.00;2.00;;;;;;;;4979398;28;8751;-69
2022/06/29 09:05:31;;;;;;;;;2.60;1.40;;;;;;;;4978074;28;8810;-69
2022/06/29 09:07:57;;;;;;;;;3.00;2.00;;;;;;;;4979699;28;8795;-69
2022/06/29 09:10:24;;;;;;;;;2.00;2.00;;;;;;;;4979473;28;8881;-61
2022/06/29 09:12:53;;;;;;;;;0.40;0.40;;;;;;;;4980311;28;8794;-69
2022/06/29 09:15:40;;;;;;;;;2.00;2.00;;;;;;;;4979221;28;8791;-69
2022/06/29 09:18:26;;;;;;;;;1.20;1.20;;;;;;;;4978584;28;8759;-69
2022/06/29 09:20:59;;;;;;;;;2.40;1.00;;;;;;;;4979744;28;8770;-69
2022/06/29 09:23:26;;;;;;;;;2.40;2.20;;;;;;;;4979188;28;8784;-69
2022/06/29 09:25:53;;;;;;;;;5.80;1.40;;;;;;;;4962368;28;8759;-69
2022/06/29 09:28:23;;;;;;;;;1.80;1.60;;;;;;;;4979528;28;9527;-68
2022/06/29 09:30:52;;;;;;;;;1.00;1.00;;;;;;;;4979357;28;8782;-69
2022/06/29 09:33:20;;;;;;;;;0.00;0.00;;;;;;;;4978143;28;8779;-68
2022/06/29 09:35:47;;;;;;;;;0.40;0.40;;;;;;;;4979080;28;8768;-69
2022/06/29 09:38:20;;;;;;;;;1.00;1.00;;;;;;;;4977897;28;8783;-69
2022/06/29 09:40:59;;;;;;;;;0.20;0.20;;;;;;;;4961242;28;9400;-68
2022/06/29 09:43:27;;;;;;;;;0.00;0.00;;;;;;;;4978641;28;8756;-68
2022/06/29 09:45:56;;;;;;;;;1.00;1.00;;;;;;;;4979302;28;8787;-69
2022/06/29 09:48:23;;;;;;;;;1.00;0.00;;;;;;;;4978108;28;8787;-69
2022/06/29 09:50:51;;;;;;;;;1.00;1.00;;;;;;;;4978660;28;9424;-69
2022/06/29 09:53:18;;;;;;;;;1.60;1.00;;;;;;;;4978414;28;8823;-68
2022/06/29 09:55:47;;;;;;;;;0.00;0.00;;;;;;;;4961512;28;8833;-69
2022/06/29 09:58:14;;;;;;;;;1.00;1.00;;;;;;;;4962432;28;8748;-69
2022/06/29 10:03:25;;;;;;;;;3.00;1.60;;;;;;;;4963562;28;10099;-68
2022/06/29 10:05:54;;;;;;;;;2.80;1.00;;;;;;;;4978352;28;8818;-69
2022/06/29 10:08:21;;;;;;;;;3.00;1.40;;;;;;;;4977083;28;8775;-68
2022/06/29 10:10:53;;;;;;;;;4.60;0.80;;;;;;;;4977608;28;8783;-69
2022/06/29 10:16:06;;;;;;;;;0.00;0.00;;;;;;;;4978218;28;9461;-68
2022/06/29 10:18:42;;;;;;;;;0.00;0.00;;;;;;;;4977769;28;8786;-69
2022/06/29 10:21:12;;;;;;;;;2.00;2.00;;;;;;;;4978361;28;8787;-69
2022/06/29 10:23:48;;;;;;;;;1.80;1.00;;;;;;;;4977924;28;8814;-69
2022/06/29 10:26:36;;;;;;;;;1.80;1.80;;;;;;;;4978298;28;8764;-69
2022/06/29 10:29:09;;;;;;;;;1.00;0.60;;;;;;;;4962216;28;8779;-69
2022/06/29 10:31:54;;;;;;;;;2.00;1.00;;;;;;;;4982081;28;8807;-68
2022/06/29 10:34:32;;;;;;;;;2.20;1.20;;;;;;;;4982827;28;8974;-68
2022/06/29 10:37:11;;;;;;;;;2.00;2.00;;;;;;;;4965272;28;8767;-69
2022/06/29 10:39:49;;;;;;;;;1.80;0.60;;;;;;;;4981881;28;10124;-69
2022/06/29 10:45:14;;;;;;;;;5.60;3.40;;;;;;;;4981897;28;8784;-69
2022/06/29 10:47:42;;;;;;;;;3.80;3.00;;;;;;;;4981387;28;8861;-69
2022/06/29 10:52:42;;;;;;;;;1.20;1.20;;;;;;;;4981637;28;8748;-69
2022/06/29 10:55:09;;;;;;;;;4.00;2.80;;;;;;;;4982503;28;8756;-69
2022/06/29 10:57:36;;;;;;;;;3.60;3.00;;;;;;;;4981547;28;8787;-69
2022/06/29 11:00:06;;;;;;;;;3.80;3.00;;;;;;;;4964602;28;8787;-69
2022/06/29 11:02:32;;;;;;;;;2.20;2.20;;;;;;;;4981566;28;8767;-69
2022/06/29 11:04:59;;;;;;;;;4.00;3.00;;;;;;;;4964196;28;8779;-69
2022/06/29 11:12:55;;;;;;;;;2.00;2.00;;;;;;;;4982363;28;9445;-69
2022/06/29 11:15:47;;;;;;;;;4.80;3.80;;;;;;;;4981585;28;8775;-69
2022/06/29 11:18:14;;;;;;;;;2.00;2.00;;;;;;;;4981224;28;8778;-69
2022/06/29 11:20:41;;;;;;;;;3.00;2.00;;;;;;;;4982277;28;8770;-69
2022/06/29 11:23:12;;;;;;;;;3.00;3.00;;;;;;;;4964705;28;8779;-69
2022/06/29 11:25:39;;;;;;;;;3.20;3.20;;;;;;;;4981852;28;8771;-69
2022/06/29 11:28:06;;;;;;;;;4.20;3.00;;;;;;;;4965292;28;8897;-69
2022/06/29 11:30:33;;;;;;;;;6.00;5.00;;;;;;;;4964333;28;8771;-69
2022/06/29 11:32:59;;;;;;;;;4.00;4.00;;;;;;;;4964353;28;8798;-69
2022/06/29 11:35:26;;;;;;;;;12.40;9.80;;;;;;;;4964726;28;8779;-68
2022/06/29 11:37:53;;;;;;;;;19.60;15.40;;;;;;;;4980350;28;8747;-69
2022/06/29 11:40:21;;;;;;;;;15.00;15.00;;;;;;;;4980041;28;8771;-69
2022/06/29 11:43:07;;;;;;;;;19.75;16.00;;;;;;;;4980125;28;8755;-69
2022/06/29 11:45:43;;;;;;;;;12.20;10.00;;;;;;;;4980928;28;8794;-69
2022/06/29 11:48:11;;;;;;;;;7.00;5.60;;;;;;;;4980976;28;8821;-69
2022/06/29 11:50:43;;;;;;;;;5.60;4.40;;;;;;;;4980705;28;8810;-69
2022/06/29 11:53:10;;;;;;;;;8.20;6.20;;;;;;;;4980841;28;9967;-69
2022/06/29 11:55:40;;;;;;;;;3.60;2.00;;;;;;;;4980581;28;8780;-69
2022/06/29 11:58:09;;;;;;;;;6.20;5.00;;;;;;;;4981674;28;8739;-69
2022/06/29 12:00:39;;;;;;;;;11.40;9.00;;;;;;;;4963852;28;8779;-69
2022/06/29 12:03:05;;;;;;;;;41.00;33.25;;;;;;;;4980832;28;8779;-70
2022/06/29 12:05:32;;;;;;;;;31.00;27.75;;;;;;;;4980544;28;8776;-69
2022/06/29 12:07:59;;;;;;;;;42.75;35.00;;;;;;;;4981164;28;8783;-69
2022/06/29 12:10:25;;;;;;;;;32.75;30.00;;;;;;;;4980646;28;8838;-69
2022/06/29 12:12:52;;;;;;;;;19.00;17.75;;;;;;;;4981053;28;8776;-69
2022/06/29 12:15:18;;;;;;;;;21.50;19.00;;;;;;;;4962866;28;8791;-67
2022/06/29 12:17:45;;;;;;;;;21.75;20.25;;;;;;;;4980179;28;8775;-69
2022/06/29 12:20:12;;;;;;;;;18.75;16.75;;;;;;;;4980028;28;9435;-69
2022/06/29 12:22:39;;;;;;;;;21.75;17.25;;;;;;;;4980122;28;8768;-69
2022/06/29 12:25:06;;;;;;;;;17.00;12.75;;;;;;;;4980737;28;9547;-69
2022/06/29 12:27:36;;;;;;;;;11.00;10.20;;;;;;;;4980087;28;8783;-69
2022/06/29 12:30:04;;;;;;;;;11.60;11.60;;;;;;;;4979918;28;8825;-69
2022/06/29 12:32:30;;;;;;;;;10.00;10.00;;;;;;;;4979785;28;8775;-69
2022/06/29 12:34:57;;;;;;;;;15.20;11.40;;;;;;;;4980230;28;8768;-69
2022/06/29 12:37:23;;;;;;;;;14.25;12.75;;;;;;;;4980367;28;8759;-69
2022/06/29 12:39:51;;;;;;;;;16.00;12.00;;;;;;;;4980510;28;8756;-69
2022/06/29 12:42:18;;;;;;;;;16.40;13.60;;;;;;;;4979625;28;8814;-67
2022/06/29 12:44:44;;;;;;;;;16.25;13.75;;;;;;;;4949560;29;8840;-69
2022/06/29 12:47:11;;;;;;;;;15.50;15.00;;;;;;;;4940976;28;8782;-69
2022/06/29 12:49:37;;;;;;;;;28.75;19.25;;;;;;;;4941253;28;8845;-69
2022/06/29 12:52:04;;;;;;;;;25.25;19.75;;;;;;;;4941102;29;8789;-69
2022/06/29 12:54:31;;;;;;;;;24.00;20.50;;;;;;;;4939789;29;8800;-69
2022/06/29 12:56:58;;;;;;;;;24.50;21.50;;;;;;;;4939975;29;9517;-69
2022/06/29 12:59:25;;;;;;;;;22.50;19.25;;;;;;;;4940931;28;8808;-68
2022/06/29 13:01:51;;;;;;;;;25.00;19.00;;;;;;;;4939609;29;8765;-69
2022/06/29 13:04:19;;;;;;;;;29.25;19.75;;;;;;;;4940281;29;8821;-68
2022/06/29 13:06:46;;;;;;;;;20.75;18.50;;;;;;;;4940959;28;8781;-69
2022/06/29 13:09:13;;;;;;;;;22.00;16.75;;;;;;;;4940990;28;8919;-69
2022/06/29 13:11:39;;;;;;;;;18.50;17.75;;;;;;;;4940365;28;8825;-69
2022/06/29 13:14:06;;;;;;;;;22.75;18.75;;;;;;;;4940572;28;8790;-69
2022/06/29 13:16:32;;;;;;;;;27.75;25.00;;;;;;;;4940382;28;8770;-68
2022/06/29 13:18:59;;;;;;;;;24.25;21.25;;;;;;;;4940655;29;8793;-69
2022/06/29 13:21:26;;;;;;;;;23.75;21.50;;;;;;;;4939981;28;8812;-69
2022/06/29 13:23:52;;;;;;;;;29.50;24.75;;;;;;;;4940578;28;8780;-69
2022/06/29 13:26:19;;;;;;;;;25.50;23.25;;;;;;;;4940319;28;8992;-68
2022/06/29 13:28:46;;;;;;;;;19.25;13.75;;;;;;;;4940553;28;8800;-69
2022/06/29 13:31:12;;;;;;;;;31.25;23.50;;;;;;;;4940895;29;8761;-69
2022/06/29 13:33:39;;;;;;;;;23.75;20.50;;;;;;;;4940208;28;8847;-68
2022/06/29 13:36:06;;;;;;;;;24.00;17.75;;;;;;;;4955113;28;8797;-69
2022/06/29 13:38:32;;;;;;;;;22.25;17.50;;;;;;;;4938709;29;8815;-68
2022/06/29 13:40:59;;;;;;;;;24.25;16.25;;;;;;;;4940370;29;8809;-69
2022/06/29 13:43:26;;;;;;;;;21.60;18.00;;;;;;;;4939939;28;8808;-69
2022/06/29 13:45:52;;;;;;;;;21.40;19.20;;;;;;;;4939361;29;8816;-69
2022/06/29 13:48:19;;;;;;;;;30.00;27.00;;;;;;;;4939738;28;8793;-67
2022/06/29 13:50:48;;;;;;;;;37.00;32.75;;;;;;;;4940349;28;8816;-69
2022/06/29 13:53:15;;;;;;;;;27.50;26.50;;;;;;;;4940071;28;9551;-69
2022/06/29 13:55:42;;;;;;;;;34.25;26.50;;;;;;;;4939894;28;8972;-69
2022/06/29 13:58:08;;;;;;;;;28.50;22.75;;;;;;;;4940700;29;8785;-69
2022/06/29 14:00:35;;;;;;;;;28.25;24.00;;;;;;;;4939785;28;8789;-69
2022/06/29 14:03:02;;;;;;;;;18.50;14.50;;;;;;;;4939666;28;8911;-69
2022/06/29 14:05:29;;;;;;;;;22.50;16.50;;;;;;;;4939680;28;8802;-69
2022/06/29 14:07:56;;;;;;;;;21.25;18.00;;;;;;;;4940204;28;8785;-69
2022/06/29 14:10:22;;;;;;;;;17.50;16.25;;;;;;;;4939692;28;8797;-69
2022/06/29 14:12:49;;;;;;;;;21.50;20.00;;;;;;;;4939803;28;8820;-69
2022/06/29 14:15:16;;;;;;;;;17.25;17.00;;;;;;;;4939397;28;9055;-69
2022/06/29 14:17:42;;;;;;;;;21.00;19.00;;;;;;;;4939592;28;8792;-69
2022/06/29 14:20:10;;;;;;;;;19.50;17.25;;;;;;;;4938755;29;8785;-69
2022/06/29 14:22:36;;;;;;;;;22.75;16.75;;;;;;;;4939618;29;8801;-69
2022/06/29 14:25:07;;;;;;;;;20.00;18.00;;;;;;;;4940375;29;8773;-69
2022/06/29 14:27:34;;;;;;;;;22.80;20.20;;;;;;;;4939851;28;8883;-69
2022/06/29 14:30:01;;;;;;;;;23.00;17.40;;;;;;;;4938526;29;8896;-69
2022/06/29 14:32:27;;;;;;;;;17.50;16.50;;;;;;;;4938025;29;9435;-69
2022/06/29 14:34:54;;;;;;;;;17.00;16.75;;;;;;;;4939395;28;8857;-69
2022/06/29 14:37:21;;;;;;;;;18.40;14.20;;;;;;;;4939958;29;8786;-68
2022/06/29 14:39:48;;;;;;;;;14.80;12.80;;;;;;;;4954096;28;8777;-69
2022/06/29 14:42:15;;;;;;;;;12.60;11.60;;;;;;;;4939899;28;9415;-69
2022/06/29 14:44:42;;;;;;;;;13.40;11.40;;;;;;;;4937992;29;9466;-69
2022/06/29 14:47:09;;;;;;;;;14.60;10.20;;;;;;;;4939458;28;8786;-69
2022/06/29 14:49:37;;;;;;;;;7.00;7.00;;;;;;;;4939731;28;9023;-69
2022/06/29 14:52:04;;;;;;;;;11.40;11.00;;;;;;;;4940126;29;8830;-69
2022/06/29 14:54:31;;;;;;;;;14.40;11.00;;;;;;;;4953769;28;8785;-69
2022/06/29 14:56:57;;;;;;;;;11.60;10.80;;;;;;;;4939667;28;8798;-69
2022/06/29 14:59:24;;;;;;;;;13.00;10.40;;;;;;;;4939342;28;8802;-69
2022/06/29 15:01:51;;;;;;;;;9.60;7.80;;;;;;;;4939347;28;8792;-69
2022/06/29 15:04:17;;;;;;;;;9.40;9.40;;;;;;;;4940163;28;8777;-68
2022/06/29 15:06:44;;;;;;;;;11.40;11.20;;;;;;;;4939319;28;8809;-69
2022/06/29 15:09:11;;;;;;;;;10.40;8.40;;;;;;;;4939539;28;8782;-69
2022/06/29 15:11:38;;;;;;;;;9.60;9.20;;;;;;;;4939184;28;8959;-69
2022/06/29 15:14:05;;;;;;;;;12.60;11.00;;;;;;;;4939595;28;8769;-69
2022/06/29 15:16:32;;;;;;;;;7.40;6.80;;;;;;;;4957119;28;8762;-69